createdAt,value
2023-04-16T00:00:14.265Z,9.52
2023-04-16T00:02:45.164Z,9.49
2023-04-16T00:05:16.281Z,9.49
2023-04-16T00:07:46.996Z,9.48
2023-04-16T00:10:17.679Z,9.52
2023-04-16T00:12:48.597Z,9.59
2023-04-16T00:15:19.355Z,9.67
2023-04-16T00:17:50.090Z,9.74
2023-04-16T00:20:21.520Z,9.77
2023-04-16T00:22:52.230Z,9.79
2023-04-16T00:25:23.201Z,9.76
2023-04-16T00:27:54.011Z,9.74
2023-04-16T00:30:24.834Z,9.76
2023-04-16T00:32:55.657Z,9.78
2023-04-16T00:35:26.665Z,9.80
2023-04-16T00:37:57.325Z,9.78
2023-04-16T00:40:30.022Z,9.78
2023-04-16T00:43:00.811Z,9.75
2023-04-16T00:45:31.570Z,9.71
2023-04-16T00:48:04.216Z,9.71
2023-04-16T00:50:36.091Z,9.67
2023-04-16T00:53:07.326Z,9.67
2023-04-16T00:55:38.326Z,9.62
2023-04-16T00:58:09.219Z,9.63
2023-04-16T01:00:39.971Z,9.63
2023-04-16T01:03:12.327Z,9.61
2023-04-16T01:05:43.873Z,9.59
2023-04-16T01:08:20.053Z,9.55
2023-04-16T01:10:50.865Z,9.44
2023-04-16T01:13:21.665Z,9.36
2023-04-16T01:15:52.435Z,9.31
2023-04-16T01:18:24.302Z,9.28
2023-04-16T01:20:55.412Z,9.27
2023-04-16T01:23:26.569Z,9.27
2023-04-16T01:25:57.866Z,9.28
2023-04-16T01:28:28.529Z,9.26
2023-04-16T01:30:59.404Z,9.25
2023-04-16T01:33:48.773Z,9.26
2023-04-16T01:36:19.590Z,9.25
2023-04-16T01:38:51.104Z,9.20
2023-04-16T01:41:21.695Z,9.13
2023-04-16T01:43:52.529Z,9.10
2023-04-16T01:46:28.756Z,9.13
2023-04-16T01:49:00.033Z,9.14
2023-04-16T01:51:31.332Z,9.18
2023-04-16T01:54:02.321Z,9.22
2023-04-16T01:56:32.968Z,9.22
2023-04-16T01:59:03.615Z,9.19
2023-04-16T02:01:39.230Z,9.19
2023-04-16T02:04:10.613Z,9.20
2023-04-16T02:06:41.988Z,9.23
2023-04-16T02:09:12.796Z,9.19
2023-04-16T02:11:43.609Z,9.15
2023-04-16T02:14:14.391Z,9.01
2023-04-16T02:16:45.725Z,8.72
2023-04-16T02:19:26.840Z,8.43
2023-04-16T02:21:57.625Z,8.34
2023-04-16T02:24:28.430Z,8.23
2023-04-16T02:26:59.688Z,8.19
2023-04-16T02:29:31.906Z,8.04
2023-04-16T02:32:09.121Z,8.02
2023-04-16T02:34:40.377Z,8.06
2023-04-16T02:37:11.326Z,8.12
2023-04-16T02:39:43.137Z,8.22
2023-04-16T02:42:14.197Z,8.29
2023-04-16T02:44:44.953Z,8.26
2023-04-16T02:47:15.747Z,8.24
2023-04-16T02:49:46.330Z,8.23
2023-04-16T02:52:17.067Z,8.23
2023-04-16T02:54:47.834Z,8.27
2023-04-16T02:57:18.478Z,8.30
2023-04-16T02:59:49.152Z,8.35
2023-04-16T03:02:19.843Z,8.25
2023-04-16T03:04:50.547Z,8.19
2023-04-16T03:07:21.212Z,8.12
2023-04-16T03:09:51.849Z,8.07
2023-04-16T03:12:22.479Z,8.12
2023-04-16T03:14:54.473Z,8.15
2023-04-16T03:17:25.315Z,8.11
2023-04-16T03:19:55.976Z,7.98
2023-04-16T03:22:27.026Z,7.77
2023-04-16T03:24:57.867Z,7.71
2023-04-16T03:27:28.602Z,7.76
2023-04-16T03:29:59.315Z,7.82
2023-04-16T03:32:30.722Z,7.83
2023-04-16T03:35:01.423Z,7.90
2023-04-16T03:37:32.222Z,8.00
2023-04-16T03:40:05.084Z,8.11
2023-04-16T03:42:36.120Z,8.19
2023-04-16T03:45:09.528Z,8.25
2023-04-16T03:47:40.635Z,8.26
2023-04-16T03:50:13.328Z,8.30
2023-04-16T03:52:44.946Z,8.30
2023-04-16T03:55:16.503Z,8.30
2023-04-16T03:57:47.192Z,8.33
2023-04-16T04:00:19.853Z,8.35
2023-04-16T04:03:02.279Z,8.33
2023-04-16T04:05:36.886Z,8.28
2023-04-16T04:08:08.877Z,8.25
2023-04-16T04:10:39.998Z,8.17
2023-04-16T04:13:10.968Z,8.17
2023-04-16T04:15:41.746Z,8.22
2023-04-16T04:18:12.525Z,8.25
2023-04-16T04:20:43.656Z,8.24
2023-04-16T04:23:18.600Z,8.16
2023-04-16T04:25:49.927Z,8.17
2023-04-16T04:28:20.821Z,8.20
2023-04-16T04:30:52.016Z,8.24
2023-04-16T04:33:23.028Z,8.23
2023-04-16T04:35:54.413Z,8.21
2023-04-16T04:38:25.673Z,8.26
2023-04-16T04:40:56.873Z,8.23
2023-04-16T04:43:27.913Z,8.13
2023-04-16T04:45:58.673Z,8.04
2023-04-16T04:48:31.070Z,7.92
2023-04-16T04:51:05.184Z,7.79
2023-04-16T04:53:36.455Z,7.68
2023-04-16T04:56:12.825Z,7.60
2023-04-16T04:58:44.608Z,7.55
2023-04-16T05:01:16.041Z,7.50
2023-04-16T05:03:47.178Z,7.47
2023-04-16T05:06:19.557Z,7.46
2023-04-16T05:08:50.166Z,7.40
2023-04-16T05:11:21.097Z,7.35
2023-04-16T05:13:52.176Z,7.29
2023-04-16T05:16:22.939Z,7.27
2023-04-16T05:18:53.701Z,7.29
2023-04-16T05:21:24.348Z,7.29
2023-04-16T05:23:55.086Z,7.28
2023-04-16T05:26:25.691Z,7.28
2023-04-16T05:28:56.298Z,7.30
2023-04-16T05:31:27.008Z,7.32
2023-04-16T05:33:58.284Z,7.33
2023-04-16T05:36:29.021Z,7.39
2023-04-16T05:38:59.777Z,7.42
2023-04-16T05:41:30.581Z,7.46
2023-04-16T05:44:01.240Z,7.47
2023-04-16T05:46:32.089Z,7.51
2023-04-16T05:49:02.761Z,7.58
2023-04-16T05:51:33.730Z,7.67
2023-04-16T05:54:05.107Z,7.75
2023-04-16T05:56:46.365Z,7.83
2023-04-16T05:59:17.044Z,7.92
2023-04-16T06:01:47.870Z,8.00
2023-04-16T06:04:18.672Z,8.06
2023-04-16T06:06:49.324Z,8.10
2023-04-16T06:09:20.023Z,8.15
2023-04-16T06:11:50.924Z,8.26
2023-04-16T06:14:22.014Z,8.35
2023-04-16T06:16:52.821Z,8.38
2023-04-16T06:19:23.612Z,8.43
2023-04-16T06:21:54.601Z,8.52
2023-04-16T06:24:25.718Z,8.63
2023-04-16T06:26:57.490Z,8.75
2023-04-16T06:29:37.349Z,8.86
2023-04-16T06:32:12.379Z,9.00
2023-04-16T06:34:42.990Z,9.13
2023-04-16T06:37:13.646Z,9.24
2023-04-16T06:39:44.389Z,9.33
2023-04-16T06:42:18.811Z,9.40
2023-04-16T06:44:49.894Z,9.43
2023-04-16T06:47:21.202Z,9.63
2023-04-16T06:49:52.153Z,10.22
2023-04-16T06:52:22.834Z,10.74
2023-04-16T06:54:53.615Z,11.18
2023-04-16T06:57:24.361Z,11.45
2023-04-16T06:59:55.036Z,11.62
2023-04-16T07:02:26.916Z,11.81
2023-04-16T07:04:57.705Z,12.00
2023-04-16T07:07:28.536Z,11.88
2023-04-16T07:10:00.175Z,11.55
2023-04-16T07:12:31.558Z,11.36
2023-04-16T07:15:02.252Z,11.31
2023-04-16T07:17:32.985Z,11.17
2023-04-16T07:20:03.909Z,11.19
2023-04-16T07:22:34.625Z,11.39
2023-04-16T07:25:06.012Z,11.43
2023-04-16T07:27:36.653Z,11.48
2023-04-16T07:30:09.344Z,11.50
2023-04-16T07:32:40.426Z,11.45
2023-04-16T07:35:12.104Z,11.42
2023-04-16T07:37:42.709Z,11.43
2023-04-16T07:40:14.868Z,11.48
2023-04-16T07:42:45.887Z,11.52
2023-04-16T07:45:16.818Z,11.55
2023-04-16T07:47:47.787Z,11.57
2023-04-16T07:50:19.493Z,11.63
2023-04-16T07:52:50.447Z,11.68
2023-04-16T07:55:21.134Z,11.76
2023-04-16T07:57:52.353Z,11.82
2023-04-16T08:00:23.554Z,11.85
2023-04-16T08:02:54.917Z,11.90
2023-04-16T08:05:25.932Z,11.96
2023-04-16T08:07:56.932Z,12.05
2023-04-16T08:10:27.850Z,12.13
2023-04-16T08:12:58.585Z,12.15
2023-04-16T08:15:29.470Z,12.15
2023-04-16T08:18:00.662Z,12.13
2023-04-16T08:20:31.509Z,12.13
2023-04-16T08:23:02.160Z,12.14
2023-04-16T08:25:33.051Z,12.18
2023-04-16T08:28:03.691Z,12.26
2023-04-16T08:30:34.574Z,12.34
2023-04-16T08:33:05.591Z,12.45
2023-04-16T08:35:36.448Z,12.61
2023-04-16T08:38:07.676Z,12.79
2023-04-16T08:40:41.457Z,12.99
2023-04-16T08:43:14.410Z,13.15
2023-04-16T08:45:45.270Z,13.29
2023-04-16T08:48:16.318Z,13.43
2023-04-16T08:50:47.824Z,13.57
2023-04-16T08:53:24.113Z,13.74
2023-04-16T08:55:57.180Z,13.91
2023-04-16T08:58:31.887Z,14.00
2023-04-16T09:01:03.957Z,14.07
2023-04-16T09:03:36.635Z,14.06
2023-04-16T09:06:10.855Z,13.99
2023-04-16T09:08:42.077Z,13.91
2023-04-16T09:11:13.392Z,13.90
2023-04-16T09:13:44.115Z,13.89
2023-04-16T09:16:16.030Z,13.88
2023-04-16T09:18:47.929Z,13.89
2023-04-16T09:21:18.673Z,13.88
2023-04-16T09:23:49.936Z,13.88
2023-04-16T09:26:21.818Z,13.89
2023-04-16T09:28:52.474Z,13.95
2023-04-16T09:31:23.387Z,13.99
2023-04-16T09:34:13.768Z,13.96
2023-04-16T09:36:42.924Z,13.98
2023-04-16T09:39:21.158Z,14.02
2023-04-16T09:41:56.210Z,14.03
2023-04-16T09:44:38.159Z,14.06
2023-04-16T09:47:10.843Z,14.12
2023-04-16T09:49:46.939Z,14.23
2023-04-16T09:52:19.397Z,14.30
2023-04-16T09:54:49.136Z,14.34
2023-04-16T09:57:23.683Z,14.37
2023-04-16T09:59:58.498Z,14.38
2023-04-16T10:02:31.810Z,14.39
2023-04-16T10:05:04.349Z,14.38
2023-04-16T10:07:37.162Z,14.36
2023-04-16T10:10:09.848Z,14.35
2023-04-16T10:12:40.764Z,14.36
2023-04-16T10:15:12.667Z,14.40
2023-04-16T10:17:44.229Z,14.43
2023-04-16T10:20:17.154Z,14.50
2023-04-16T10:22:49.395Z,14.56
2023-04-16T10:25:21.596Z,14.66
2023-04-16T10:27:52.882Z,14.74
2023-04-16T10:30:24.524Z,14.78
2023-04-16T10:32:56.704Z,14.79
2023-04-16T10:35:28.415Z,14.80
2023-04-16T10:38:20.553Z,14.80
2023-04-16T10:40:52.072Z,14.79
2023-04-16T10:43:22.958Z,14.80
2023-04-16T10:45:54.997Z,14.82
2023-04-16T10:48:31.022Z,14.84
2023-04-16T10:51:09.519Z,14.85
2023-04-16T10:53:40.397Z,14.88
2023-04-16T10:56:15.456Z,14.88
2023-04-16T10:58:46.077Z,14.84
2023-04-16T11:01:18.897Z,14.83
2023-04-16T11:03:50.684Z,14.85
2023-04-16T11:06:27.753Z,14.88
2023-04-16T11:08:58.500Z,14.91
2023-04-16T11:11:39.200Z,14.95
2023-04-16T11:14:12.081Z,15.05
2023-04-16T11:16:44.894Z,15.13
2023-04-16T11:19:20.010Z,15.17
2023-04-16T11:21:52.147Z,15.20
2023-04-16T11:24:24.632Z,15.26
2023-04-16T11:26:56.913Z,15.33
2023-04-16T11:29:27.880Z,15.43
2023-04-16T11:31:58.578Z,15.52
2023-04-16T11:34:29.414Z,15.59
2023-04-16T11:37:00.312Z,15.63
2023-04-16T11:39:31.310Z,15.60
2023-04-16T11:42:01.965Z,15.50
2023-04-16T11:44:32.737Z,15.43
2023-04-16T11:47:08.402Z,15.44
2023-04-16T11:49:39.081Z,15.46
2023-04-16T11:52:10.061Z,15.47
2023-04-16T11:54:41.275Z,15.43
2023-04-16T11:57:12.634Z,15.29
2023-04-16T12:00:02.121Z,15.15
2023-04-16T12:02:55.168Z,15.04
2023-04-16T12:05:35.019Z,15.13
2023-04-16T12:08:07.900Z,15.17
2023-04-16T12:10:53.438Z,15.20
2023-04-16T12:13:24.069Z,15.20
2023-04-16T12:15:55.958Z,15.21
2023-04-16T12:18:27.389Z,15.21
2023-04-16T12:20:58.263Z,15.22
2023-04-16T12:23:30.859Z,15.26
2023-04-16T12:26:10.613Z,15.32
2023-04-16T12:28:42.075Z,15.39
2023-04-16T12:31:12.734Z,15.40
2023-04-16T12:33:43.442Z,15.40
2023-04-16T12:36:24.626Z,15.35
2023-04-16T12:38:55.352Z,15.36
2023-04-16T12:41:26.342Z,15.39
2023-04-16T12:44:06.728Z,15.45
2023-04-16T12:46:38.521Z,15.56
2023-04-16T12:49:10.460Z,15.67
2023-04-16T12:51:42.226Z,15.78
2023-04-16T12:54:12.998Z,15.86
2023-04-16T12:56:44.152Z,15.87
2023-04-16T12:59:14.858Z,15.91
2023-04-16T13:01:45.831Z,15.95
2023-04-16T13:04:16.589Z,15.98
2023-04-16T13:06:47.506Z,15.99
2023-04-16T13:09:20.289Z,15.97
2023-04-16T13:11:51.138Z,15.92
2023-04-16T13:14:21.790Z,15.86
2023-04-16T13:16:52.569Z,15.80
2023-04-16T13:19:23.226Z,15.76
2023-04-16T13:21:54.198Z,15.72
2023-04-16T13:24:25.828Z,15.71
2023-04-16T13:26:57.266Z,15.68
2023-04-16T13:29:28.530Z,15.66
2023-04-16T13:31:59.389Z,15.64
2023-04-16T13:34:30.479Z,15.60
2023-04-16T13:37:01.354Z,15.52
2023-04-16T13:39:32.256Z,15.44
2023-04-16T13:42:03.243Z,15.36
2023-04-16T13:44:33.894Z,15.33
2023-04-16T13:47:04.961Z,15.28
2023-04-16T13:49:36.368Z,15.30
2023-04-16T13:52:07.579Z,15.41
2023-04-16T13:54:38.352Z,15.42
2023-04-16T13:57:09.240Z,15.40
2023-04-16T13:59:39.985Z,15.38
2023-04-16T14:02:11.466Z,15.45
2023-04-16T14:04:42.685Z,15.55
2023-04-16T14:07:13.469Z,15.54
2023-04-16T14:09:44.525Z,15.46
2023-04-16T14:12:15.148Z,15.38
2023-04-16T14:14:46.082Z,15.32
2023-04-16T14:17:18.020Z,15.24
2023-04-16T14:19:51.947Z,15.13
2023-04-16T14:22:22.717Z,15.08
2023-04-16T14:24:53.379Z,15.13
2023-04-16T14:27:24.051Z,15.15
2023-04-16T14:29:54.792Z,15.07
2023-04-16T14:32:25.576Z,15.01
2023-04-16T14:34:56.543Z,14.86
2023-04-16T14:37:28.021Z,14.80
2023-04-16T14:39:58.836Z,14.86
2023-04-16T14:42:29.547Z,14.86
2023-04-16T14:45:00.435Z,14.84
2023-04-16T14:47:31.109Z,14.83
2023-04-16T14:50:02.042Z,14.66
2023-04-16T14:52:33.755Z,14.57
2023-04-16T14:55:05.498Z,14.45
2023-04-16T14:57:36.676Z,14.30
2023-04-16T15:00:10.298Z,14.19
2023-04-16T15:02:41.507Z,14.14
2023-04-16T15:05:12.965Z,14.17
2023-04-16T15:07:43.561Z,14.15
2023-04-16T15:10:17.354Z,14.16
2023-04-16T15:12:47.983Z,14.07
2023-04-16T15:15:18.652Z,13.96
2023-04-16T15:17:50.525Z,13.82
2023-04-16T15:20:21.735Z,13.71
2023-04-16T15:22:52.400Z,13.65
2023-04-16T15:25:23.608Z,13.72
2023-04-16T15:27:54.486Z,13.74
2023-04-16T15:30:25.726Z,13.80
2023-04-16T15:32:56.444Z,13.85
2023-04-16T15:35:27.588Z,13.84
2023-04-16T15:37:58.524Z,13.95
2023-04-16T15:40:29.389Z,13.98
2023-04-16T15:43:00.051Z,13.92
2023-04-16T15:45:31.862Z,13.79
2023-04-16T15:48:05.463Z,13.72
2023-04-16T15:50:37.662Z,13.63
2023-04-16T15:53:10.078Z,13.58
2023-04-16T15:55:39.147Z,13.57
2023-04-16T15:58:09.940Z,13.54
2023-04-16T16:00:40.666Z,13.53
2023-04-16T16:03:12.107Z,13.52
2023-04-16T16:05:43.097Z,13.49
2023-04-16T16:08:13.948Z,13.41
2023-04-16T16:10:44.650Z,13.33
2023-04-16T16:13:18.208Z,13.35
2023-04-16T16:15:50.708Z,13.37
2023-04-16T16:18:22.299Z,13.36
2023-04-16T16:20:56.925Z,13.38
2023-04-16T16:23:27.764Z,13.32
2023-04-16T16:25:58.341Z,13.26
2023-04-16T16:28:29.145Z,13.16
2023-04-16T16:31:01.447Z,13.06
2023-04-16T16:33:32.214Z,12.99
2023-04-16T16:36:03.180Z,12.91
2023-04-16T16:38:34.436Z,12.83
2023-04-16T16:41:05.134Z,12.77
2023-04-16T16:43:35.867Z,12.73
2023-04-16T16:46:07.411Z,12.69
2023-04-16T16:48:38.266Z,12.67
2023-04-16T16:51:12.176Z,12.64
2023-04-16T16:53:43.028Z,12.60
2023-04-16T16:56:13.811Z,12.52
2023-04-16T16:58:44.744Z,12.47
2023-04-16T17:01:15.581Z,12.45
2023-04-16T17:03:46.937Z,12.42
2023-04-16T17:06:18.180Z,12.40
2023-04-16T17:08:49.422Z,12.37
2023-04-16T17:11:20.653Z,12.31
2023-04-16T17:13:51.673Z,12.24
2023-04-16T17:16:24.148Z,12.22
2023-04-16T17:18:55.407Z,12.13
2023-04-16T17:21:26.349Z,12.18
2023-04-16T17:23:58.435Z,12.16
2023-04-16T17:26:29.119Z,12.15
2023-04-16T17:28:59.992Z,12.14
2023-04-16T17:31:31.182Z,12.12
2023-04-16T17:34:04.914Z,12.06
2023-04-16T17:36:35.715Z,12.03
2023-04-16T17:39:06.763Z,12.02
2023-04-16T17:41:37.414Z,11.99
2023-04-16T17:44:09.901Z,11.98
2023-04-16T17:46:42.314Z,11.99
2023-04-16T17:49:13.558Z,11.96
2023-04-16T17:51:44.678Z,11.94
2023-04-16T17:54:15.716Z,11.91
2023-04-16T17:56:46.803Z,11.87
2023-04-16T17:59:17.549Z,11.84
2023-04-16T18:01:49.775Z,11.80
2023-04-16T18:04:20.699Z,11.76
2023-04-16T18:06:51.543Z,11.73
2023-04-16T18:09:22.328Z,11.73
2023-04-16T18:11:52.960Z,11.73
2023-04-16T18:14:23.638Z,11.73
2023-04-16T18:16:54.297Z,11.72
2023-04-16T18:19:25.096Z,11.71
2023-04-16T18:21:55.812Z,11.70
2023-04-16T18:24:26.597Z,11.66
2023-04-16T18:26:57.760Z,11.63
2023-04-16T18:29:28.689Z,11.59
2023-04-16T18:32:00.323Z,11.57
2023-04-16T18:34:32.772Z,11.56
2023-04-16T18:37:04.442Z,11.52
2023-04-16T18:39:36.742Z,11.55
2023-04-16T18:42:07.930Z,11.54
2023-04-16T18:44:38.660Z,11.53
2023-04-16T18:47:09.350Z,11.54
2023-04-16T18:49:40.174Z,11.54
2023-04-16T18:52:10.975Z,11.54
2023-04-16T18:54:43.491Z,11.53
2023-04-16T18:57:12.542Z,11.51
2023-04-16T18:59:43.457Z,11.47
2023-04-16T19:02:14.163Z,11.43
2023-04-16T19:04:45.020Z,11.41
2023-04-16T19:07:15.690Z,11.41
2023-04-16T19:09:46.413Z,11.41
2023-04-16T19:12:17.053Z,11.41
2023-04-16T19:14:47.820Z,11.41
2023-04-16T19:17:18.607Z,11.41
2023-04-16T19:19:49.491Z,11.39
2023-04-16T19:22:20.291Z,11.36
2023-04-16T19:24:51.086Z,11.34
2023-04-16T19:27:21.762Z,11.35
2023-04-16T19:29:52.880Z,11.33
2023-04-16T19:32:23.949Z,11.32
2023-04-16T19:34:54.564Z,11.31
2023-04-16T19:37:25.361Z,11.30
2023-04-16T19:39:56.304Z,11.30
2023-04-16T19:42:27.034Z,11.27
2023-04-16T19:44:57.770Z,11.23
2023-04-16T19:47:28.505Z,11.21
2023-04-16T19:49:59.424Z,11.21
2023-04-16T19:52:30.103Z,11.22
2023-04-16T19:55:00.942Z,11.23
2023-04-16T19:57:31.664Z,11.22
2023-04-16T20:00:02.548Z,11.21
2023-04-16T20:02:53.412Z,11.19
2023-04-16T20:05:26.105Z,11.19
2023-04-16T20:07:57.368Z,11.19
2023-04-16T20:10:28.256Z,11.19
2023-04-16T20:12:58.872Z,11.19
2023-04-16T20:15:29.500Z,11.18
2023-04-16T20:18:00.711Z,11.18
2023-04-16T20:20:31.482Z,11.15
2023-04-16T20:23:02.055Z,11.13
2023-04-16T20:25:32.865Z,11.13
2023-04-16T20:28:03.598Z,11.13
2023-04-16T20:30:38.869Z,11.12
2023-04-16T20:33:09.977Z,11.12
2023-04-16T20:35:40.947Z,11.10
2023-04-16T20:38:11.693Z,11.10
2023-04-16T20:40:44.639Z,11.09
2023-04-16T20:43:18.914Z,11.09
2023-04-16T20:45:50.841Z,11.08
2023-04-16T20:48:21.536Z,11.08
2023-04-16T20:50:52.496Z,11.09
2023-04-16T20:53:23.136Z,11.08
2023-04-16T20:55:53.809Z,11.08
2023-04-16T20:58:24.850Z,11.03
2023-04-16T21:00:56.836Z,10.98
2023-04-16T21:03:27.717Z,10.95
2023-04-16T21:05:58.637Z,10.94
2023-04-16T21:08:29.368Z,10.93
2023-04-16T21:11:00.001Z,10.87
2023-04-16T21:13:30.772Z,10.82
2023-04-16T21:16:01.528Z,10.78
2023-04-16T21:18:32.286Z,10.74
2023-04-16T21:21:03.072Z,10.74
2023-04-16T21:23:33.795Z,10.75
2023-04-16T21:26:04.530Z,10.75
2023-04-16T21:28:35.135Z,10.76
2023-04-16T21:31:05.917Z,10.77
2023-04-16T21:33:36.736Z,10.77
2023-04-16T21:36:08.075Z,10.78
2023-04-16T21:38:38.814Z,10.77
2023-04-16T21:41:09.581Z,10.80
2023-04-16T21:43:40.389Z,10.79
2023-04-16T21:46:11.175Z,10.80
2023-04-16T21:48:41.818Z,10.81
2023-04-16T21:51:12.442Z,10.81
2023-04-16T21:53:43.151Z,10.81
2023-04-16T21:56:14.884Z,10.79
2023-04-16T21:58:45.629Z,10.88
2023-04-16T22:01:16.478Z,10.92
2023-04-16T22:03:50.774Z,11.00
2023-04-16T22:06:21.772Z,11.07
2023-04-16T22:08:53.437Z,11.06
2023-04-16T22:11:24.058Z,11.07
2023-04-16T22:13:57.734Z,11.04
2023-04-16T22:16:28.726Z,11.07
2023-04-16T22:19:00.241Z,11.10
2023-04-16T22:21:31.394Z,11.15
2023-04-16T22:24:02.756Z,11.18
2023-04-16T22:26:33.378Z,11.09
2023-04-16T22:29:04.100Z,11.06
2023-04-16T22:31:34.882Z,11.05
2023-04-16T22:34:05.806Z,11.01
2023-04-16T22:36:36.556Z,11.01
2023-04-16T22:39:08.782Z,11.04
2023-04-16T22:41:39.711Z,11.09
2023-04-16T22:44:10.585Z,11.14
2023-04-16T22:46:41.514Z,11.18
2023-04-16T22:49:12.443Z,11.22
2023-04-16T22:51:43.515Z,11.24
2023-04-16T22:54:14.364Z,11.21
2023-04-16T22:56:45.083Z,11.19
2023-04-16T22:59:15.926Z,11.14
2023-04-16T23:01:46.690Z,11.11
2023-04-16T23:04:17.647Z,11.07
2023-04-16T23:06:48.528Z,11.02
2023-04-16T23:09:20.563Z,11.03
2023-04-16T23:11:51.326Z,11.01
2023-04-16T23:14:22.388Z,11.04
2023-04-16T23:16:53.030Z,11.10
2023-04-16T23:19:23.756Z,11.16
2023-04-16T23:21:54.388Z,11.20
2023-04-16T23:24:25.120Z,11.25
2023-04-16T23:26:56.097Z,11.29
2023-04-16T23:29:26.771Z,11.32
2023-04-16T23:31:58.384Z,11.35
2023-04-16T23:34:29.070Z,11.35
2023-04-16T23:36:59.788Z,11.35
2023-04-16T23:39:30.591Z,11.36
2023-04-16T23:42:01.948Z,11.35
2023-04-16T23:44:32.664Z,11.35
2023-04-16T23:47:03.500Z,11.37
2023-04-16T23:49:34.582Z,11.30
2023-04-16T23:52:05.893Z,11.29
2023-04-16T23:54:36.597Z,11.29
2023-04-16T23:57:07.301Z,11.26
2023-04-16T23:59:38.030Z,11.24
